Reklama
Líbí se Vám tento web? Budeme velmi rádi, pokud přidáte hodnocení +1

Seznam meteostanic a jejich METAR

Vyhledat místa podle abecedy:
A B C D E F G H I J K L M N O P Q R S T U V W X Y Z

Filtrovat:

ID stanice:
a/nebo
Název místa (fulltext):
 
Místo (ID)Naposledy načteno 
Edinburgh (EGPH) 21.06.2018 01:50 UTC Zobrazit METAR
EGPH 210150Z 26005KT CAVOK 07/05 Q1019
Eindhoven (EHEH) 21.06.2018 01:55 UTC Zobrazit METAR
EHEH 210155Z AUTO 21006KT 190V250 9999 OVC360 16/14 Q1015 BLU
Entebbe (HUEN) 14.06.2018 11:00 UTC Zobrazit METAR
HUEN 141100Z 23005KT 9999 SCT020 28/18 Q1019
Esbjerg (EKEB) 22.05.2018 07:50 UTC Zobrazit METAR
EKEB 220750Z 08008KT CAVOK 18/07 Q1018
Reklama

Počasí na Váš email

Emaily jsou bez reklamy a bez spamu



Odhlásit newsletter

Reklama


Lunární kalendář

  • 28.06.
  • 06.07.
  • 13.07.
  • 19.07.



Slunečno.cz na Google+

Reklama


Reklama
Povinné ručení
Reklama




Reklama